createdAt,value
2018-03-03T00:00:27.730Z,0.00
2018-03-03T00:01:27.761Z,0.00
2018-03-03T00:02:27.761Z,0.00
2018-03-03T00:03:27.761Z,0.00
2018-03-03T00:04:27.765Z,0.00
2018-03-03T00:05:27.785Z,0.00
2018-03-03T00:06:27.787Z,0.00
2018-03-03T00:07:27.841Z,0.00
2018-03-03T00:08:27.796Z,0.00
2018-03-03T00:09:27.801Z,0.00
2018-03-03T00:10:27.824Z,0.00
2018-03-03T00:11:27.837Z,0.00
2018-03-03T00:12:27.864Z,0.00
2018-03-03T00:13:27.842Z,0.00
2018-03-03T00:14:27.850Z,0.00
2018-03-03T00:15:27.853Z,0.00
2018-03-03T00:16:27.877Z,0.00
2018-03-03T00:17:27.925Z,0.00
2018-03-03T00:18:27.878Z,0.00
2018-03-03T00:19:27.884Z,0.00
2018-03-03T00:20:27.891Z,0.00
2018-03-03T00:21:27.904Z,0.00
2018-03-03T00:22:27.928Z,0.00
2018-03-03T00:23:27.945Z,0.00
2018-03-03T00:24:27.935Z,0.00
2018-03-03T00:25:27.950Z,0.00
2018-03-03T00:26:27.942Z,0.00
2018-03-03T00:27:27.952Z,0.00
2018-03-03T00:28:27.960Z,0.00
2018-03-03T00:29:27.966Z,0.00
2018-03-03T00:30:27.985Z,0.00
2018-03-03T00:31:27.983Z,0.00
2018-03-03T00:32:28.004Z,0.00
2018-03-03T00:33:28.011Z,0.00
2018-03-03T00:34:28.017Z,0.00
2018-03-03T00:35:28.018Z,0.00
2018-03-03T00:36:28.045Z,0.00
2018-03-03T00:37:28.027Z,0.00
2018-03-03T00:38:28.064Z,0.00
2018-03-03T00:39:28.065Z,0.00
2018-03-03T00:40:28.056Z,0.00
2018-03-03T00:41:28.061Z,0.00
2018-03-03T00:42:28.073Z,0.00
2018-03-03T00:43:28.087Z,0.00
2018-03-03T00:44:28.105Z,0.00
2018-03-03T00:45:28.088Z,0.00
2018-03-03T00:46:28.112Z,0.00
2018-03-03T00:47:28.111Z,0.00
2018-03-03T00:48:28.117Z,0.00
2018-03-03T00:49:28.158Z,0.00
2018-03-03T00:50:28.160Z,0.00
2018-03-03T00:51:28.138Z,0.00
2018-03-03T00:52:28.144Z,0.00
2018-03-03T00:53:28.156Z,0.00
2018-03-03T00:54:28.161Z,0.00
2018-03-03T00:55:28.170Z,0.00
2018-03-03T00:56:28.184Z,0.00
2018-03-03T00:57:28.185Z,0.00
2018-03-03T00:58:28.204Z,0.00
2018-03-03T00:59:28.246Z,0.00
2018-03-03T01:00:28.214Z,0.00
2018-03-03T01:01:28.238Z,0.00
2018-03-03T01:02:28.223Z,0.00
2018-03-03T01:03:28.266Z,0.00
2018-03-03T01:04:28.243Z,0.00
2018-03-03T01:05:28.271Z,0.00
2018-03-03T01:06:28.258Z,0.00
2018-03-03T01:07:28.286Z,0.00
2018-03-03T01:08:28.305Z,0.00
2018-03-03T01:09:28.351Z,0.00
2018-03-03T01:10:28.392Z,0.00
2018-03-03T01:11:28.294Z,0.00
2018-03-03T01:12:28.305Z,0.00
2018-03-03T01:13:28.315Z,0.00
2018-03-03T01:14:28.351Z,0.00
2018-03-03T01:15:28.340Z,0.00
2018-03-03T01:16:28.368Z,0.00
2018-03-03T01:17:28.357Z,0.00
2018-03-03T01:18:28.387Z,0.00
2018-03-03T01:19:28.376Z,0.00
2018-03-03T01:20:28.364Z,0.00
2018-03-03T01:21:28.432Z,0.00
2018-03-03T01:22:28.393Z,0.00
2018-03-03T01:23:28.402Z,0.00
2018-03-03T01:24:28.433Z,0.00
2018-03-03T01:25:28.434Z,0.00
2018-03-03T01:26:28.418Z,0.00
2018-03-03T01:27:28.488Z,0.00
2018-03-03T01:28:28.459Z,0.00
2018-03-03T01:29:28.440Z,0.00
2018-03-03T01:30:28.446Z,0.00
2018-03-03T01:31:28.596Z,0.00
2018-03-03T01:32:28.460Z,0.00
2018-03-03T01:33:28.487Z,0.00
2018-03-03T01:34:28.506Z,0.00
2018-03-03T01:35:28.505Z,0.00
2018-03-03T01:36:28.505Z,0.00
2018-03-03T01:37:28.524Z,0.00
2018-03-03T01:38:28.510Z,0.00
2018-03-03T01:39:28.535Z,0.00
2018-03-03T01:40:28.546Z,0.00
2018-03-03T01:41:28.549Z,0.00
2018-03-03T01:42:28.552Z,0.00
2018-03-03T01:43:28.561Z,0.00
2018-03-03T01:44:28.565Z,0.00
2018-03-03T01:45:28.569Z,0.00
2018-03-03T01:46:28.578Z,0.00
2018-03-03T01:47:28.623Z,0.00
2018-03-03T01:48:28.635Z,0.00
2018-03-03T01:49:28.621Z,0.00
2018-03-03T01:50:28.625Z,0.00
2018-03-03T01:51:28.643Z,0.00
2018-03-03T01:52:28.625Z,0.00
2018-03-03T01:53:28.628Z,0.00
2018-03-03T01:54:28.651Z,0.00
2018-03-03T01:55:28.643Z,0.00
2018-03-03T01:56:28.673Z,0.00
2018-03-03T01:57:28.683Z,0.00
2018-03-03T01:58:28.679Z,0.00
2018-03-03T01:59:28.684Z,0.00
2018-03-03T02:00:28.703Z,0.00
2018-03-03T02:01:28.705Z,0.00
2018-03-03T02:02:28.727Z,0.00
2018-03-03T02:03:28.737Z,0.00
2018-03-03T02:04:28.735Z,0.00
2018-03-03T02:05:28.744Z,0.00
2018-03-03T02:06:28.739Z,0.00
2018-03-03T02:07:28.772Z,0.00
2018-03-03T02:08:28.781Z,0.00
2018-03-03T02:09:28.765Z,0.00
2018-03-03T02:10:28.774Z,0.00
2018-03-03T02:11:28.772Z,0.00
2018-03-03T02:12:28.786Z,0.00
2018-03-03T02:13:28.798Z,0.00
2018-03-03T02:14:28.805Z,0.00
2018-03-03T02:15:28.806Z,0.00
2018-03-03T02:16:28.842Z,0.00
2018-03-03T02:17:28.823Z,0.00
2018-03-03T02:18:28.832Z,0.00
2018-03-03T02:19:28.858Z,0.00
2018-03-03T02:20:28.859Z,0.00
2018-03-03T02:21:28.868Z,0.00
2018-03-03T02:22:28.886Z,0.00
2018-03-03T02:23:28.909Z,0.00
2018-03-03T02:24:28.876Z,0.00
2018-03-03T02:25:28.894Z,0.00
2018-03-03T02:26:28.892Z,0.00
2018-03-03T02:27:28.892Z,0.00
2018-03-03T02:28:28.914Z,0.00
2018-03-03T02:29:28.931Z,0.00
2018-03-03T02:30:28.919Z,0.00
2018-03-03T02:31:28.935Z,0.00
2018-03-03T02:32:28.952Z,0.00
2018-03-03T02:33:28.975Z,0.00
2018-03-03T02:34:28.996Z,0.00
2018-03-03T02:35:28.951Z,0.00
2018-03-03T02:36:28.963Z,0.00
2018-03-03T02:37:28.988Z,0.00
2018-03-03T02:38:28.992Z,0.00
2018-03-03T02:39:29.036Z,0.00
2018-03-03T02:40:29.006Z,0.00
2018-03-03T02:41:29.019Z,0.00
2018-03-03T02:42:29.013Z,0.00
2018-03-03T02:43:29.087Z,0.00
2018-03-03T02:44:29.059Z,0.00
2018-03-03T02:45:29.038Z,0.00
2018-03-03T02:46:29.054Z,0.00
2018-03-03T02:47:29.051Z,0.00
2018-03-03T02:48:29.065Z,0.00
2018-03-03T02:49:29.072Z,0.00
2018-03-03T02:50:29.079Z,0.00
2018-03-03T02:51:29.082Z,0.00
2018-03-03T02:52:29.093Z,0.00
2018-03-03T02:53:29.113Z,0.00
2018-03-03T02:54:29.112Z,0.00
2018-03-03T02:55:29.118Z,0.00
2018-03-03T02:56:29.123Z,0.00
2018-03-03T02:57:29.139Z,0.00
2018-03-03T02:58:29.138Z,0.00
2018-03-03T02:59:29.150Z,0.00
2018-03-03T03:00:29.155Z,0.00
2018-03-03T03:01:29.167Z,0.00
2018-03-03T03:02:29.163Z,0.00
2018-03-03T03:03:29.181Z,0.00
2018-03-03T03:04:29.206Z,0.00
2018-03-03T03:05:29.188Z,0.00
2018-03-03T03:06:29.205Z,0.00
2018-03-03T03:07:29.211Z,0.00
2018-03-03T03:08:29.233Z,0.00
2018-03-03T03:09:29.228Z,0.00
2018-03-03T03:10:29.254Z,0.00
2018-03-03T03:11:29.383Z,0.00
2018-03-03T03:12:29.244Z,0.00
2018-03-03T03:13:29.259Z,0.00
2018-03-03T03:14:29.261Z,0.00
2018-03-03T03:15:29.266Z,0.00
2018-03-03T03:16:29.294Z,0.00
2018-03-03T03:17:29.364Z,0.00
2018-03-03T03:18:29.292Z,0.00
2018-03-03T03:19:29.296Z,0.00
2018-03-03T03:20:29.307Z,0.00
2018-03-03T03:21:29.330Z,0.00
2018-03-03T03:22:29.363Z,0.00
2018-03-03T03:23:29.356Z,0.00
2018-03-03T03:24:29.378Z,0.00
2018-03-03T03:25:29.339Z,0.00
2018-03-03T03:26:29.347Z,0.00
2018-03-03T03:27:29.365Z,0.00
2018-03-03T03:28:29.376Z,0.00
2018-03-03T03:29:29.372Z,0.00
2018-03-03T03:30:29.381Z,0.00
2018-03-03T03:31:29.447Z,0.00
2018-03-03T03:32:29.433Z,0.00
2018-03-03T03:33:29.413Z,0.00
2018-03-03T03:34:29.429Z,0.00
2018-03-03T03:35:29.423Z,0.00
2018-03-03T03:36:29.425Z,0.00
2018-03-03T03:37:29.455Z,0.00
2018-03-03T03:38:29.450Z,0.00
2018-03-03T03:39:29.477Z,0.00
2018-03-03T03:40:29.450Z,0.00
2018-03-03T03:41:29.459Z,0.00
2018-03-03T03:42:29.463Z,0.00
2018-03-03T03:43:29.505Z,0.00
2018-03-03T03:44:29.483Z,0.00
2018-03-03T03:45:29.499Z,0.00
2018-03-03T03:46:29.574Z,0.00
2018-03-03T03:47:29.513Z,0.00
2018-03-03T03:48:29.558Z,0.00
2018-03-03T03:49:29.546Z,0.00
2018-03-03T03:50:29.533Z,0.00
2018-03-03T03:51:29.554Z,0.00
2018-03-03T03:52:29.556Z,0.00
2018-03-03T03:53:29.555Z,0.00
2018-03-03T03:54:29.571Z,0.00
2018-03-03T03:55:29.576Z,0.00
2018-03-03T03:56:29.572Z,0.00
2018-03-03T03:57:29.599Z,0.00
2018-03-03T03:58:29.604Z,0.00
2018-03-03T03:59:29.608Z,0.00
2018-03-03T04:00:29.613Z,0.00
2018-03-03T04:01:29.612Z,0.00
2018-03-03T04:02:29.614Z,0.00
2018-03-03T04:03:29.630Z,0.00
2018-03-03T04:04:29.683Z,0.00
2018-03-03T04:05:29.650Z,0.00
2018-03-03T04:06:29.653Z,0.00
2018-03-03T04:07:29.678Z,0.00
2018-03-03T04:08:29.708Z,0.00
2018-03-03T04:09:29.718Z,0.00
2018-03-03T04:10:29.703Z,0.00
2018-03-03T04:11:29.752Z,0.00
2018-03-03T04:12:29.839Z,0.00
2018-03-03T04:13:29.709Z,0.00
2018-03-03T04:14:29.793Z,0.00
2018-03-03T04:15:29.731Z,0.00
2018-03-03T04:16:29.772Z,0.00
2018-03-03T04:17:29.736Z,0.00
2018-03-03T04:18:29.743Z,0.00
2018-03-03T04:19:29.748Z,0.00
2018-03-03T04:20:29.761Z,0.00
2018-03-03T04:21:29.760Z,0.00
2018-03-03T04:22:29.768Z,0.00
2018-03-03T04:23:29.769Z,0.00
2018-03-03T04:24:29.787Z,0.00
2018-03-03T04:25:29.785Z,0.00
2018-03-03T04:26:29.803Z,0.00
2018-03-03T04:27:29.852Z,0.00
2018-03-03T04:28:29.840Z,0.00
2018-03-03T04:29:29.835Z,0.00
2018-03-03T04:30:29.837Z,0.00
2018-03-03T04:31:29.826Z,0.00
2018-03-03T04:32:29.886Z,0.00
2018-03-03T04:33:29.867Z,0.00
2018-03-03T04:34:29.860Z,0.00
2018-03-03T04:35:29.863Z,0.00
2018-03-03T04:36:29.891Z,0.00
2018-03-03T04:37:29.868Z,0.00
2018-03-03T04:38:29.967Z,0.00
2018-03-03T04:39:29.914Z,0.00
2018-03-03T04:40:29.898Z,0.00
2018-03-03T04:41:29.920Z,0.00
2018-03-03T04:42:29.912Z,0.00
2018-03-03T04:43:29.912Z,0.00
2018-03-03T04:44:29.927Z,0.00
2018-03-03T04:45:29.925Z,0.00
2018-03-03T04:46:29.937Z,0.00
2018-03-03T04:47:29.952Z,0.00
2018-03-03T04:48:29.946Z,0.00
2018-03-03T04:49:29.994Z,0.00
2018-03-03T04:50:29.982Z,0.00
2018-03-03T04:51:29.973Z,0.00
2018-03-03T04:52:29.971Z,0.00
2018-03-03T04:53:30.051Z,0.00
2018-03-03T04:54:30.002Z,0.00
2018-03-03T04:55:30.013Z,0.00
2018-03-03T04:56:30.089Z,0.00
2018-03-03T04:57:30.023Z,0.00
2018-03-03T04:58:30.027Z,0.00
2018-03-03T04:59:30.048Z,0.00
2018-03-03T05:00:30.044Z,0.00
2018-03-03T05:01:30.038Z,0.00
2018-03-03T05:02:30.045Z,0.00
2018-03-03T05:03:30.066Z,0.00
2018-03-03T05:04:30.083Z,0.00
2018-03-03T05:05:30.064Z,0.00
2018-03-03T05:06:30.080Z,0.00
2018-03-03T05:07:30.108Z,0.00
2018-03-03T05:08:30.097Z,0.00
2018-03-03T05:09:30.095Z,0.00
2018-03-03T05:10:30.159Z,0.00
2018-03-03T05:11:30.118Z,0.00
2018-03-03T05:12:30.132Z,0.00
2018-03-03T05:13:30.146Z,0.00
2018-03-03T05:14:30.192Z,0.00
2018-03-03T05:15:30.137Z,0.00
2018-03-03T05:16:30.155Z,0.00
2018-03-03T05:17:30.145Z,0.00
2018-03-03T05:18:30.166Z,0.00
2018-03-03T05:19:30.172Z,0.00
2018-03-03T05:20:30.194Z,0.00
2018-03-03T05:21:30.186Z,0.00
2018-03-03T05:22:30.224Z,4.00
2018-03-03T05:23:30.236Z,4.00
2018-03-03T05:24:30.201Z,4.00
2018-03-03T05:25:30.230Z,0.00
2018-03-03T05:26:30.280Z,0.00
2018-03-03T05:27:30.236Z,0.00
2018-03-03T05:28:30.228Z,4.00
2018-03-03T05:29:30.252Z,0.00
2018-03-03T05:30:30.267Z,4.00
2018-03-03T05:31:30.261Z,4.00
2018-03-03T05:32:30.298Z,4.00
2018-03-03T05:33:30.269Z,4.00
2018-03-03T05:34:30.277Z,4.00
2018-03-03T05:35:30.278Z,4.00
2018-03-03T05:36:30.342Z,8.00
2018-03-03T05:37:30.293Z,8.00
2018-03-03T05:38:30.319Z,12.00
2018-03-03T05:39:30.312Z,12.00
2018-03-03T05:40:30.326Z,16.00
2018-03-03T05:41:30.336Z,16.00
2018-03-03T05:42:30.370Z,20.00
2018-03-03T05:43:30.338Z,24.00
2018-03-03T05:44:30.346Z,28.00
2018-03-03T05:45:30.347Z,32.00
2018-03-03T05:46:30.387Z,40.00
2018-03-03T05:47:30.416Z,44.00
2018-03-03T05:48:30.380Z,52.00
2018-03-03T05:49:30.376Z,60.00
2018-03-03T05:50:30.393Z,72.00
2018-03-03T05:51:30.405Z,80.00
2018-03-03T05:52:30.407Z,92.00
2018-03-03T05:53:30.412Z,104.00
2018-03-03T05:54:30.421Z,120.00
2018-03-03T05:55:30.439Z,132.00
2018-03-03T05:56:30.453Z,148.00
2018-03-03T05:57:30.441Z,164.00
2018-03-03T05:58:30.450Z,184.00
2018-03-03T05:59:30.482Z,208.00
2018-03-03T06:00:30.463Z,232.00
2018-03-03T06:01:30.471Z,256.00
2018-03-03T06:02:30.473Z,276.00
2018-03-03T06:03:30.497Z,308.00
2018-03-03T06:04:30.491Z,336.00
2018-03-03T06:05:30.494Z,364.00
2018-03-03T06:06:30.505Z,396.00
2018-03-03T06:07:30.514Z,428.00
2018-03-03T06:08:30.571Z,464.00
2018-03-03T06:09:30.530Z,504.00
2018-03-03T06:10:30.552Z,548.00
2018-03-03T06:11:30.536Z,596.00
2018-03-03T06:12:30.568Z,644.00
2018-03-03T06:13:30.561Z,696.00
2018-03-03T06:14:30.577Z,752.00
2018-03-03T06:15:30.580Z,804.00
2018-03-03T06:16:30.575Z,852.00
2018-03-03T06:17:30.581Z,888.00
2018-03-03T06:18:30.596Z,920.00
2018-03-03T06:19:30.596Z,952.00
2018-03-03T06:20:30.605Z,1000.00
2018-03-03T06:21:30.619Z,1052.00
2018-03-03T06:22:30.636Z,1100.00
2018-03-03T06:23:30.654Z,1168.00
2018-03-03T06:24:30.638Z,1272.00
2018-03-03T06:25:30.641Z,1396.00
2018-03-03T06:26:30.666Z,1532.00
2018-03-03T06:27:30.658Z,1664.00
2018-03-03T06:28:30.686Z,1784.00
2018-03-03T06:29:30.671Z,1900.00
2018-03-03T06:30:30.696Z,2012.00
2018-03-03T06:31:30.677Z,2124.00
2018-03-03T06:32:30.709Z,2240.00
2018-03-03T06:33:30.771Z,2360.00
2018-03-03T06:34:30.744Z,2484.00
2018-03-03T06:35:30.746Z,2608.00
2018-03-03T06:36:30.749Z,2720.00
2018-03-03T06:37:30.736Z,2840.00
2018-03-03T06:38:30.725Z,2960.00
2018-03-03T06:39:30.764Z,3104.00
2018-03-03T06:40:30.735Z,3216.00
2018-03-03T06:41:30.780Z,3320.00
2018-03-03T06:42:30.778Z,3552.00
2018-03-03T06:43:30.786Z,3948.00
2018-03-03T06:44:30.809Z,4280.00
2018-03-03T06:45:30.778Z,4540.00
2018-03-03T06:46:30.776Z,4824.00
2018-03-03T06:47:30.787Z,5064.00
2018-03-03T06:48:30.800Z,5272.00
2018-03-03T06:49:30.813Z,5540.00
2018-03-03T06:50:30.818Z,5720.00
2018-03-03T06:51:30.861Z,5988.00
2018-03-03T06:52:30.824Z,6276.00
2018-03-03T06:53:30.862Z,6468.00
2018-03-03T06:54:30.884Z,6656.00
2018-03-03T06:55:30.887Z,6936.00
2018-03-03T06:56:30.871Z,7256.00
2018-03-03T06:57:30.890Z,7480.00
2018-03-03T06:58:30.893Z,7772.00
2018-03-03T06:59:30.898Z,8160.00
2018-03-03T07:00:30.903Z,8460.00
2018-03-03T07:01:30.906Z,8820.00
2018-03-03T07:02:30.924Z,8260.00
2018-03-03T07:03:30.939Z,9256.00
2018-03-03T07:04:30.946Z,9664.00
2018-03-03T07:05:30.956Z,9904.00
2018-03-03T07:06:30.968Z,10108.00
2018-03-03T07:07:30.972Z,10180.00
2018-03-03T07:08:30.983Z,10212.00
2018-03-03T07:09:30.992Z,9384.00
2018-03-03T07:10:31.025Z,7800.00
2018-03-03T07:11:31.078Z,7908.00
2018-03-03T07:12:31.026Z,9600.00
2018-03-03T07:13:31.035Z,11048.00
2018-03-03T07:14:31.060Z,10980.00
2018-03-03T07:15:31.082Z,11012.00
2018-03-03T07:16:31.065Z,11152.00
2018-03-03T07:17:31.071Z,11260.00
2018-03-03T07:18:31.103Z,10868.00
2018-03-03T07:19:31.103Z,9400.00
2018-03-03T07:20:31.122Z,7220.00
2018-03-03T07:21:31.131Z,8376.00
2018-03-03T07:22:31.154Z,11188.00
2018-03-03T07:23:31.145Z,9732.00
2018-03-03T07:24:31.161Z,10304.00
2018-03-03T07:25:31.179Z,9608.00
2018-03-03T07:26:31.256Z,7772.00
2018-03-03T07:27:31.199Z,7812.00
2018-03-03T07:28:31.246Z,7440.00
2018-03-03T07:29:31.226Z,7028.00
2018-03-03T07:30:31.243Z,6852.00
2018-03-03T07:31:31.339Z,6532.00
2018-03-03T07:32:31.251Z,6312.00
2018-03-03T07:33:31.275Z,5964.00
2018-03-03T07:34:31.282Z,5968.00
2018-03-03T07:35:31.278Z,6412.00
2018-03-03T07:36:31.296Z,10224.00
2018-03-03T07:37:31.347Z,11028.00
2018-03-03T07:38:31.297Z,6692.00
2018-03-03T07:39:31.313Z,6308.00
2018-03-03T07:40:31.322Z,5932.00
2018-03-03T07:41:31.336Z,5552.00
2018-03-03T07:42:31.346Z,5352.00
2018-03-03T07:43:31.361Z,5356.00
2018-03-03T07:44:31.379Z,5492.00
2018-03-03T07:45:31.416Z,5360.00
2018-03-03T07:46:31.385Z,5052.00
2018-03-03T07:47:31.403Z,4796.00
2018-03-03T07:48:31.427Z,4576.00
2018-03-03T07:49:31.422Z,4400.00
2018-03-03T07:50:31.436Z,4200.00
2018-03-03T07:51:31.436Z,4152.00
2018-03-03T07:52:31.442Z,4156.00
2018-03-03T07:53:31.471Z,4204.00
2018-03-03T07:54:31.473Z,4280.00
2018-03-03T07:55:31.457Z,4356.00
2018-03-03T07:56:31.475Z,4452.00
2018-03-03T07:57:31.497Z,4648.00
2018-03-03T07:58:31.509Z,4788.00
2018-03-03T07:59:31.501Z,4836.00
2018-03-03T08:00:31.520Z,4860.00
2018-03-03T08:01:31.522Z,4888.00
2018-03-03T08:02:31.543Z,4936.00
2018-03-03T08:03:31.578Z,5108.00
2018-03-03T08:04:31.544Z,5484.00
2018-03-03T08:05:31.569Z,5928.00
2018-03-03T08:06:31.576Z,6656.00
2018-03-03T08:07:31.584Z,7668.00
2018-03-03T08:08:31.584Z,8828.00
2018-03-03T08:09:31.587Z,8576.00
2018-03-03T08:10:31.596Z,9404.00
2018-03-03T08:11:31.598Z,10196.00
2018-03-03T08:12:31.615Z,16224.00
2018-03-03T08:13:31.640Z,19136.00
2018-03-03T08:14:31.652Z,19008.00
2018-03-03T08:15:31.632Z,18464.00
2018-03-03T08:16:31.637Z,18496.00
2018-03-03T08:17:31.668Z,17376.00
2018-03-03T08:18:31.666Z,13880.00
2018-03-03T08:19:31.712Z,12800.00
2018-03-03T08:20:31.690Z,13312.00
2018-03-03T08:21:31.700Z,12500.00
2018-03-03T08:22:31.704Z,15808.00
2018-03-03T08:23:31.737Z,14264.00
2018-03-03T08:24:31.712Z,19136.00
2018-03-03T08:25:31.762Z,16480.00
2018-03-03T08:26:31.736Z,13944.00
2018-03-03T08:27:31.746Z,19616.00
2018-03-03T08:28:31.765Z,16704.00
2018-03-03T08:29:31.784Z,16352.00
2018-03-03T08:30:31.787Z,21344.00
2018-03-03T08:31:31.786Z,21728.00
2018-03-03T08:32:31.815Z,21344.00
2018-03-03T08:33:31.825Z,22016.00
2018-03-03T08:34:31.828Z,21792.00
2018-03-03T08:35:31.843Z,21312.00
2018-03-03T08:36:31.886Z,19936.00
2018-03-03T08:37:31.906Z,17280.00
2018-03-03T08:38:31.871Z,16304.00
2018-03-03T08:39:31.906Z,13044.00
2018-03-03T08:40:31.904Z,12252.00
2018-03-03T08:41:31.921Z,12036.00
2018-03-03T08:42:31.953Z,11964.00
2018-03-03T08:43:31.928Z,12236.00
2018-03-03T08:44:31.937Z,11116.00
2018-03-03T08:45:31.988Z,11256.00
2018-03-03T08:46:31.984Z,11492.00
2018-03-03T08:47:31.994Z,11420.00
2018-03-03T08:48:31.981Z,10932.00
2018-03-03T08:49:32.008Z,10772.00
2018-03-03T08:50:32.008Z,11136.00
2018-03-03T08:51:32.059Z,10932.00
2018-03-03T08:52:32.085Z,10528.00
2018-03-03T08:53:32.138Z,10240.00
2018-03-03T08:54:32.083Z,11264.00
2018-03-03T08:55:32.069Z,11632.00
2018-03-03T08:56:32.069Z,10156.00
2018-03-03T08:57:32.077Z,10344.00
2018-03-03T08:58:32.085Z,10304.00
2018-03-03T08:59:32.124Z,9636.00
2018-03-03T09:00:32.107Z,9872.00
2018-03-03T09:01:32.125Z,9396.00
2018-03-03T09:02:32.146Z,9312.00
2018-03-03T09:03:32.154Z,9044.00
2018-03-03T09:04:32.173Z,8808.00
2018-03-03T09:05:32.164Z,8592.00
2018-03-03T09:06:32.219Z,8576.00
2018-03-03T09:07:32.185Z,8532.00
2018-03-03T09:08:32.194Z,8600.00
2018-03-03T09:09:32.204Z,8920.00
2018-03-03T09:10:32.213Z,8944.00
2018-03-03T09:11:32.216Z,9016.00
2018-03-03T09:12:32.284Z,9060.00
2018-03-03T09:13:32.233Z,9228.00
2018-03-03T09:14:32.260Z,9232.00
2018-03-03T09:15:32.253Z,9240.00
2018-03-03T09:16:32.278Z,9192.00
2018-03-03T09:17:32.302Z,9248.00
2018-03-03T09:18:32.287Z,9268.00
2018-03-03T09:19:32.296Z,9372.00
2018-03-03T09:20:32.304Z,9448.00
2018-03-03T09:21:32.308Z,9456.00
2018-03-03T09:22:32.345Z,9368.00
2018-03-03T09:23:32.374Z,9244.00
2018-03-03T09:24:32.355Z,9140.00
2018-03-03T09:25:32.359Z,9128.00
2018-03-03T09:26:32.362Z,9140.00
2018-03-03T09:27:32.367Z,9160.00
2018-03-03T09:28:32.398Z,9108.00
2018-03-03T09:29:32.396Z,9072.00
2018-03-03T09:30:32.417Z,9136.00
2018-03-03T09:31:32.405Z,9136.00
2018-03-03T09:32:32.444Z,9168.00
2018-03-03T09:33:32.444Z,9392.00
2018-03-03T09:34:32.448Z,9196.00
2018-03-03T09:35:32.460Z,9096.00
2018-03-03T09:36:32.459Z,9040.00
2018-03-03T09:37:32.464Z,9056.00
2018-03-03T09:38:32.496Z,9056.00
2018-03-03T09:39:32.566Z,8980.00
2018-03-03T09:40:32.529Z,8968.00
2018-03-03T09:41:32.506Z,9308.00
2018-03-03T09:42:32.522Z,9032.00
2018-03-03T09:43:32.533Z,8736.00
2018-03-03T09:44:32.538Z,8552.00
2018-03-03T09:45:32.548Z,8492.00
2018-03-03T09:46:32.561Z,8616.00
2018-03-03T09:47:32.566Z,8480.00
2018-03-03T09:48:32.579Z,8228.00
2018-03-03T09:49:32.595Z,8072.00
2018-03-03T09:50:32.596Z,8036.00
2018-03-03T09:51:32.601Z,8084.00
2018-03-03T09:52:32.637Z,8164.00
2018-03-03T09:53:32.633Z,8412.00
2018-03-03T09:54:32.663Z,8252.00
2018-03-03T09:55:32.654Z,8336.00
2018-03-03T09:56:32.667Z,8484.00
2018-03-03T09:57:32.712Z,8796.00
2018-03-03T09:58:32.681Z,8932.00
2018-03-03T09:59:32.693Z,8936.00
2018-03-03T10:00:32.701Z,8868.00
2018-03-03T10:01:32.762Z,9044.00
2018-03-03T10:02:32.722Z,9620.00
2018-03-03T10:03:32.728Z,9796.00
2018-03-03T10:04:32.744Z,9380.00
2018-03-03T10:05:32.739Z,8992.00
2018-03-03T10:06:32.760Z,8992.00
2018-03-03T10:07:32.771Z,9168.00
2018-03-03T10:08:32.763Z,9100.00
2018-03-03T10:09:32.777Z,9116.00
2018-03-03T10:10:32.799Z,9760.00
2018-03-03T10:11:32.810Z,9704.00
2018-03-03T10:12:32.823Z,9312.00
2018-03-03T10:13:32.835Z,8768.00
2018-03-03T10:14:32.839Z,8392.00
2018-03-03T10:15:32.880Z,8440.00
2018-03-03T10:16:32.870Z,8304.00
2018-03-03T10:17:32.971Z,8144.00
2018-03-03T10:18:32.872Z,7884.00
2018-03-03T10:19:32.888Z,7660.00
2018-03-03T10:20:32.898Z,7180.00
2018-03-03T10:21:32.900Z,6904.00
2018-03-03T10:22:32.971Z,6720.00
2018-03-03T10:23:32.918Z,6476.00
2018-03-03T10:24:32.937Z,6312.00
2018-03-03T10:25:33.029Z,6224.00
2018-03-03T10:26:32.971Z,6184.00
2018-03-03T10:27:32.998Z,6252.00
2018-03-03T10:28:32.972Z,6352.00
2018-03-03T10:29:33.005Z,6328.00
2018-03-03T10:30:33.051Z,6332.00
2018-03-03T10:31:32.998Z,6536.00
2018-03-03T10:32:33.040Z,6712.00
2018-03-03T10:33:33.025Z,7064.00
2018-03-03T10:34:33.068Z,7288.00
2018-03-03T10:35:33.053Z,6948.00
2018-03-03T10:36:33.072Z,6712.00
2018-03-03T10:37:33.064Z,6520.00
2018-03-03T10:38:33.119Z,6444.00
2018-03-03T10:39:33.093Z,6604.00
2018-03-03T10:40:33.090Z,6768.00
2018-03-03T10:41:33.102Z,7164.00
2018-03-03T10:42:33.131Z,7136.00
2018-03-03T10:43:33.120Z,6608.00
2018-03-03T10:44:33.138Z,6328.00
2018-03-03T10:45:33.144Z,6600.00
2018-03-03T10:46:33.174Z,6160.00
2018-03-03T10:47:33.161Z,5996.00
2018-03-03T10:48:33.170Z,6144.00
2018-03-03T10:49:33.198Z,5900.00
2018-03-03T10:50:33.208Z,6036.00
2018-03-03T10:51:33.219Z,6244.00
2018-03-03T10:52:33.244Z,6480.00
2018-03-03T10:53:33.222Z,6656.00
2018-03-03T10:54:33.233Z,6952.00
2018-03-03T10:55:33.252Z,7144.00
2018-03-03T10:56:33.256Z,7020.00
2018-03-03T10:57:33.287Z,7056.00
2018-03-03T10:58:33.321Z,7068.00
2018-03-03T10:59:33.281Z,7072.00
2018-03-03T11:00:33.287Z,7196.00
2018-03-03T11:01:33.295Z,7580.00
2018-03-03T11:02:33.306Z,8072.00
2018-03-03T11:03:33.326Z,8328.00
2018-03-03T11:04:33.338Z,8968.00
2018-03-03T11:05:33.386Z,9660.00
2018-03-03T11:06:33.353Z,9808.00
2018-03-03T11:07:33.356Z,10004.00
2018-03-03T11:08:33.360Z,10176.00
2018-03-03T11:09:33.382Z,10232.00
2018-03-03T11:10:33.394Z,10144.00
2018-03-03T11:11:33.395Z,10100.00
2018-03-03T11:12:33.422Z,9612.00
2018-03-03T11:13:33.422Z,9812.00
2018-03-03T11:14:33.440Z,9960.00
2018-03-03T11:15:33.439Z,9736.00
2018-03-03T11:16:33.479Z,9764.00
2018-03-03T11:17:33.455Z,9976.00
2018-03-03T11:18:33.460Z,10104.00
2018-03-03T11:19:33.479Z,10144.00
2018-03-03T11:20:33.550Z,10120.00
2018-03-03T11:21:33.506Z,10112.00
2018-03-03T11:22:33.508Z,10036.00
2018-03-03T11:23:33.510Z,9888.00
2018-03-03T11:24:33.529Z,9740.00
2018-03-03T11:25:33.546Z,9616.00
2018-03-03T11:26:33.544Z,9468.00
2018-03-03T11:27:33.556Z,9320.00
2018-03-03T11:28:33.698Z,9188.00
2018-03-03T11:29:33.608Z,9140.00
2018-03-03T11:30:33.585Z,9108.00
2018-03-03T11:31:33.603Z,9084.00
2018-03-03T11:32:33.612Z,9076.00
2018-03-03T11:33:33.652Z,9012.00
2018-03-03T11:34:33.639Z,8900.00
2018-03-03T11:35:33.647Z,8848.00
2018-03-03T11:36:33.660Z,8836.00
2018-03-03T11:37:33.672Z,8800.00
2018-03-03T11:38:33.678Z,8756.00
2018-03-03T11:39:33.700Z,8728.00
2018-03-03T11:40:33.691Z,8768.00
2018-03-03T11:41:33.717Z,8836.00
2018-03-03T11:42:33.731Z,8936.00
2018-03-03T11:43:33.754Z,9044.00
2018-03-03T11:44:33.743Z,9132.00
2018-03-03T11:45:33.759Z,9176.00
2018-03-03T11:46:33.759Z,9160.00
2018-03-03T11:47:33.776Z,9112.00
2018-03-03T11:48:33.793Z,9128.00
2018-03-03T11:49:33.850Z,9244.00
2018-03-03T11:50:33.805Z,9372.00
2018-03-03T11:51:33.804Z,9492.00
2018-03-03T11:52:33.817Z,9600.00
2018-03-03T11:53:33.830Z,9656.00
2018-03-03T11:54:33.844Z,9796.00
2018-03-03T11:55:33.893Z,9960.00
2018-03-03T11:56:33.919Z,10140.00
2018-03-03T11:57:33.923Z,10300.00
2018-03-03T11:58:33.908Z,10548.00
2018-03-03T11:59:33.897Z,10772.00
2018-03-03T12:00:33.928Z,10916.00
2018-03-03T12:01:33.909Z,10900.00
2018-03-03T12:02:33.935Z,10984.00
2018-03-03T12:03:33.945Z,11020.00
2018-03-03T12:04:33.949Z,11164.00
2018-03-03T12:05:33.969Z,11068.00
2018-03-03T12:06:33.976Z,10960.00
2018-03-03T12:07:33.998Z,10908.00
2018-03-03T12:08:34.023Z,10824.00
2018-03-03T12:09:34.035Z,10796.00
2018-03-03T12:10:34.091Z,10744.00
2018-03-03T12:11:34.031Z,10492.00
2018-03-03T12:12:34.041Z,9984.00
2018-03-03T12:13:34.077Z,9696.00
2018-03-03T12:14:34.089Z,9380.00
2018-03-03T12:15:34.098Z,9100.00
2018-03-03T12:16:34.091Z,8884.00
2018-03-03T12:17:34.099Z,8740.00
2018-03-03T12:18:34.159Z,8568.00
2018-03-03T12:19:34.139Z,8356.00
2018-03-03T12:20:34.232Z,8092.00
2018-03-03T12:21:34.180Z,7840.00
2018-03-03T12:22:34.151Z,7664.00
2018-03-03T12:23:34.163Z,7552.00
2018-03-03T12:24:34.184Z,7532.00
2018-03-03T12:25:34.190Z,7552.00
2018-03-03T12:26:34.237Z,7560.00
2018-03-03T12:27:34.236Z,7540.00
2018-03-03T12:28:34.231Z,7548.00
2018-03-03T12:29:34.264Z,7552.00
2018-03-03T12:30:34.263Z,7556.00
2018-03-03T12:31:34.268Z,7568.00
2018-03-03T12:32:34.272Z,7612.00
2018-03-03T12:33:34.303Z,7688.00
2018-03-03T12:34:34.308Z,7776.00
2018-03-03T12:35:34.309Z,7844.00